Time;durP1;ratioP1;P1;durP2;ratioP2;P2;SDS_P1;SDS_P2;PMS_P1;PMS_P2;Temp;Humidity;BMP_temperature;BMP_pressure;BME280_temperature;BME280_humidity;BME280_pressure;Samples;Min_cycle;Max_cycle;Signal;HPM_P1;HPM_P2
2021/03/15 00:00:30;;;;;;;9.35;2.58;;;17.60;57.40;;;;;;4971668;28;20034;-69
2021/03/15 00:02:56;;;;;;;8.27;2.33;;;17.60;57.50;;;;;;4971146;28;20030;-69
2021/03/15 00:05:22;;;;;;;6.57;2.20;;;17.60;57.40;;;;;;4971057;28;20094;-69
2021/03/15 00:07:48;;;;;;;6.18;2.45;;;17.50;57.40;;;;;;4966929;28;20023;-69
2021/03/15 00:10:15;;;;;;;7.72;2.10;;;17.60;57.50;;;;;;4974306;28;20430;-69
2021/03/15 00:12:42;;;;;;;6.68;2.03;;;17.60;57.50;;;;;;4970965;28;20023;-69
2021/03/15 00:15:10;;;;;;;6.13;2.30;;;17.50;57.30;;;;;;4973888;28;20026;-69
2021/03/15 00:17:37;;;;;;;5.38;2.20;;;17.50;57.40;;;;;;4955645;28;20042;-69
2021/03/15 00:20:06;;;;;;;6.10;1.85;;;17.50;57.40;;;;;;4973777;28;20081;-69
2021/03/15 00:22:32;;;;;;;6.35;2.00;;;17.50;57.50;;;;;;4972121;28;20027;-69
2021/03/15 00:24:58;;;;;;;4.68;2.17;;;17.50;57.50;;;;;;4973698;28;20541;-69
2021/03/15 00:27:24;;;;;;;7.05;2.05;;;17.50;57.50;;;;;;4972368;28;20031;-69
2021/03/15 00:29:51;;;;;;;5.32;2.00;;;17.40;57.40;;;;;;4955762;28;20102;-69
2021/03/15 00:32:18;;;;;;;5.45;1.63;;;17.40;57.40;;;;;;4967239;28;20448;-69
2021/03/15 00:34:44;;;;;;;5.18;1.80;;;17.40;57.50;;;;;;4967180;28;20043;-69
2021/03/15 00:37:10;;;;;;;6.43;1.80;;;17.40;57.50;;;;;;4960835;28;20054;-69
2021/03/15 00:39:36;;;;;;;5.13;2.10;;;17.40;57.50;;;;;;4954577;29;20028;-69
2021/03/15 00:42:02;;;;;;;5.13;1.77;;;17.40;57.60;;;;;;4962147;28;20062;-70
2021/03/15 00:44:27;;;;;;;5.82;1.65;;;17.40;57.60;;;;;;4957159;28;20126;-70
2021/03/15 00:46:53;;;;;;;6.47;1.52;;;17.40;57.50;;;;;;4969431;28;20493;-70
2021/03/15 00:49:19;;;;;;;5.32;1.50;;;17.40;57.40;;;;;;4973433;28;20041;-70
2021/03/15 00:51:45;;;;;;;3.55;1.60;;;17.40;57.30;;;;;;4956230;28;20086;-70
2021/03/15 00:54:11;;;;;;;6.63;1.50;;;17.40;57.20;;;;;;4973122;28;20122;-69
2021/03/15 00:56:37;;;;;;;11.07;1.95;;;17.40;57.20;;;;;;4971929;28;20031;-70
2021/03/15 00:59:03;;;;;;;4.80;1.95;;;17.40;57.10;;;;;;4975970;28;20039;-70
2021/03/15 01:01:29;;;;;;;4.68;1.67;;;17.40;57.70;;;;;;4974488;28;20030;-69
2021/03/15 01:03:55;;;;;;;6.22;1.80;;;17.40;57.10;;;;;;4975584;28;20038;-69
2021/03/15 01:06:20;;;;;;;5.65;1.65;;;17.40;57.00;;;;;;4970271;28;20023;-69
2021/03/15 01:08:47;;;;;;;8.35;1.95;;;17.40;57.10;;;;;;4942189;29;20039;-69
2021/03/15 01:11:13;;;;;;;4.95;1.55;;;17.30;57.20;;;;;;4943019;28;20035;-69
2021/03/15 01:13:39;;;;;;;5.47;1.60;;;17.30;57.20;;;;;;4977451;28;20055;-70
2021/03/15 01:16:05;;;;;;;6.20;1.50;;;17.40;57.30;;;;;;4977710;28;20102;-70
2021/03/15 01:18:31;;;;;;;4.47;1.40;;;17.30;57.20;;;;;;4976218;28;20102;-69
2021/03/15 01:20:57;;;;;;;7.53;1.70;;;17.30;57.20;;;;;;4976698;28;20085;-70
2021/03/15 01:23:23;;;;;;;2.72;1.13;;;17.40;57.20;;;;;;4969307;28;20031;-69
2021/03/15 01:25:49;;;;;;;5.15;1.40;;;17.30;57.20;;;;;;4954085;28;20034;-70
2021/03/15 01:28:16;;;;;;;4.45;1.52;;;17.30;57.30;;;;;;4975613;28;20030;-69
2021/03/15 01:30:44;;;;;;;4.68;1.30;;;17.30;57.20;;;;;;4977469;28;20030;-69
2021/03/15 01:33:11;;;;;;;4.68;1.30;;;17.20;57.20;;;;;;4949829;28;20034;-69
2021/03/15 01:35:37;;;;;;;3.85;1.50;;;17.20;57.20;;;;;;4953006;28;20030;-70
2021/03/15 01:38:06;;;;;;;4.43;1.45;;;17.20;57.30;;;;;;4962162;28;20042;-70
2021/03/15 01:40:33;;;;;;;3.67;1.40;;;17.20;57.20;;;;;;4966702;28;20486;-70
2021/03/15 01:42:59;;;;;;;5.05;1.42;;;17.20;57.20;;;;;;4971331;28;20102;-69
2021/03/15 01:45:24;;;;;;;3.78;1.40;;;17.20;57.30;;;;;;4976124;28;20027;-70
2021/03/15 01:47:51;;;;;;;4.38;1.38;;;17.20;57.40;;;;;;4966276;28;20026;-70
2021/03/15 01:50:18;;;;;;;3.28;1.40;;;17.20;57.50;;;;;;4970033;28;20037;-70
2021/03/15 01:52:45;;;;;;;3.47;1.20;;;17.10;57.50;;;;;;4972036;28;20023;-69
2021/03/15 01:55:13;;;;;;;3.78;1.25;;;17.10;57.40;;;;;;4970163;28;20476;-69
2021/03/15 01:57:39;;;;;;;3.75;1.23;;;17.10;57.60;;;;;;4958925;28;20064;-70
2021/03/15 02:00:07;;;;;;;5.53;1.73;;;17.10;57.60;;;;;;4975545;28;20030;-69
2021/03/15 02:02:36;;;;;;;6.20;1.48;;;17.10;57.60;;;;;;4963709;28;20030;-70
2021/03/15 02:05:03;;;;;;;3.08;1.20;;;17.10;57.60;;;;;;4968651;28;20111;-70
2021/03/15 02:07:29;;;;;;;4.15;1.40;;;17.10;57.60;;;;;;4968239;28;20023;-70
2021/03/15 02:09:55;;;;;;;3.88;1.25;;;17.10;57.60;;;;;;4958631;28;20028;-69
2021/03/15 02:12:58;;;;;;;4.20;1.08;;;17.10;57.60;;;;;;4975854;28;20105;-70
2021/03/15 02:15:43;;;;;;;3.13;1.27;;;17.10;57.50;;;;;;4962945;28;20132;-70
2021/03/15 02:18:16;;;;;;;5.85;1.30;;;17.10;57.60;;;;;;4974733;28;20031;-70
2021/03/15 02:20:50;;;;;;;5.50;1.40;;;17.10;57.50;;;;;;4976275;28;20110;-69
2021/03/15 02:23:33;;;;;;;4.00;1.10;;;17.00;57.60;;;;;;4973394;28;20478;-69
2021/03/15 02:26:37;;;;;;;4.63;1.58;;;17.00;57.60;;;;;;4962891;28;20052;-69
2021/03/15 02:29:21;;;;;;;4.63;1.25;;;17.00;57.60;;;;;;4974050;28;20066;-69
2021/03/15 02:32:24;;;;;;;4.97;1.10;;;17.00;57.60;;;;;;4974945;28;20406;-69
2021/03/15 02:35:12;;;;;;;6.85;1.40;;;17.00;57.60;;;;;;4975165;28;20114;-69
2021/03/15 02:38:08;;;;;;;4.50;1.08;;;17.00;57.60;;;;;;4973709;28;20034;-69
2021/03/15 02:40:52;;;;;;;3.00;1.02;;;17.00;57.50;;;;;;4963237;28;20057;-69
2021/03/15 02:43:23;;;;;;;2.88;1.25;;;16.90;57.60;;;;;;4973853;28;20078;-68
2021/03/15 02:45:57;;;;;;;3.47;1.20;;;17.00;57.60;;;;;;4975371;28;20027;-69
2021/03/15 02:48:25;;;;;;;1.50;0.90;;;17.00;57.60;;;;;;4963600;28;20490;-69
2021/03/15 02:50:52;;;;;;;2.15;1.02;;;16.90;57.70;;;;;;4968353;28;20378;-69
2021/03/15 02:53:19;;;;;;;3.45;1.20;;;16.90;57.60;;;;;;4972623;28;20027;-69
2021/03/15 02:55:52;;;;;;;2.65;1.00;;;16.90;57.70;;;;;;4945752;29;20355;-69
2021/03/15 02:58:19;;;;;;;3.80;1.10;;;16.90;57.60;;;;;;4962398;28;20126;-69
2021/03/15 03:00:47;;;;;;;3.42;1.08;;;16.90;57.70;;;;;;4964812;28;20019;-69
2021/03/15 03:03:13;;;;;;;3.25;1.10;;;16.90;57.70;;;;;;4960035;28;20039;-69
2021/03/15 03:05:40;;;;;;;4.15;1.45;;;16.90;57.80;;;;;;4958515;28;20042;-71
2021/03/15 03:08:08;;;;;;;2.58;1.00;;;16.90;57.80;;;;;;4963122;28;20059;-68
2021/03/15 03:10:34;;;;;;;3.50;1.10;;;16.80;58.40;;;;;;4973095;28;20023;-69
2021/03/15 03:13:01;;;;;;;2.17;1.00;;;16.80;57.80;;;;;;4973464;28;20027;-68
2021/03/15 03:15:31;;;;;;;3.00;1.05;;;16.80;57.60;;;;;;4971953;28;20039;-69
2021/03/15 03:18:01;;;;;;;2.40;1.02;;;16.80;57.60;;;;;;4975304;28;20189;-69
2021/03/15 03:20:29;;;;;;;3.20;1.05;;;16.80;57.60;;;;;;4975283;28;20430;-68
2021/03/15 03:22:59;;;;;;;3.63;1.10;;;16.80;57.60;;;;;;4963098;28;20085;-68
2021/03/15 03:25:26;;;;;;;4.68;1.05;;;16.80;57.60;;;;;;4944528;28;20028;-69
2021/03/15 03:27:55;;;;;;;2.17;0.95;;;16.80;57.60;;;;;;4974480;28;20609;-68
2021/03/15 03:30:32;;;;;;;3.30;1.08;;;16.80;57.60;;;;;;4974462;28;20019;-69
2021/03/15 03:33:00;;;;;;;3.45;1.10;;;16.80;57.50;;;;;;4964537;28;20019;-69
2021/03/15 03:35:27;;;;;;;1.88;0.98;;;16.80;57.50;;;;;;4964429;28;20050;-69
2021/03/15 03:37:52;;;;;;;2.17;1.00;;;16.80;57.50;;;;;;4974902;28;20478;-70
2021/03/15 03:40:19;;;;;;;2.50;0.90;;;16.80;57.60;;;;;;4952598;29;20058;-69
2021/03/15 03:42:45;;;;;;;2.22;0.90;;;16.70;57.50;;;;;;4952528;28;20045;-69
2021/03/15 03:45:12;;;;;;;2.22;0.90;;;16.70;57.60;;;;;;4971823;28;20174;-69
2021/03/15 03:47:39;;;;;;;3.47;1.13;;;16.70;57.50;;;;;;4962064;28;20058;-69
2021/03/15 03:50:08;;;;;;;3.30;1.05;;;16.70;57.40;;;;;;4973785;28;20035;-69
2021/03/15 03:52:38;;;;;;;3.03;0.95;;;16.70;57.70;;;;;;4973290;28;20030;-69
2021/03/15 03:55:08;;;;;;;3.03;1.00;;;16.70;57.50;;;;;;4968115;28;20062;-69
2021/03/15 03:57:37;;;;;;;3.25;0.88;;;16.70;57.50;;;;;;4971751;28;20051;-69
2021/03/15 04:00:11;;;;;;;2.55;1.10;;;16.70;57.40;;;;;;4972540;28;20094;-69
2021/03/15 04:02:59;;;;;;;4.55;1.10;;;16.70;57.40;;;;;;4970898;28;20179;-69
2021/03/15 04:05:30;;;;;;;1.95;0.80;;;16.80;57.30;;;;;;4955317;28;20044;-69
2021/03/15 04:08:06;;;;;;;4.45;1.00;;;16.80;57.10;;;;;;4973171;28;20378;-69
2021/03/15 04:10:34;;;;;;;3.03;0.95;;;16.80;57.20;;;;;;4967007;28;20485;-69
2021/03/15 04:13:07;;;;;;;2.28;1.05;;;16.80;56.80;;;;;;4974014;28;20038;-69
2021/03/15 04:15:34;;;;;;;2.65;1.00;;;16.80;56.70;;;;;;4955289;28;20510;-69
2021/03/15 04:18:03;;;;;;;2.53;1.00;;;16.80;57.20;;;;;;4966551;28;20031;-69
2021/03/15 04:20:32;;;;;;;2.65;0.90;;;16.90;56.70;;;;;;4969692;28;20019;-69
2021/03/15 04:23:01;;;;;;;2.83;0.80;;;16.90;56.60;;;;;;4955762;28;20029;-69
2021/03/15 04:25:32;;;;;;;1.85;0.98;;;16.80;56.50;;;;;;4955783;28;20386;-69
2021/03/15 04:27:59;;;;;;;5.40;1.13;;;16.80;56.60;;;;;;4972066;28;20058;-69
2021/03/15 04:30:26;;;;;;;2.22;0.88;;;16.70;56.70;;;;;;4960905;28;20111;-69
2021/03/15 04:32:53;;;;;;;2.05;0.95;;;16.80;56.70;;;;;;4957987;28;20045;-69
2021/03/15 04:35:40;;;;;;;4.25;1.00;;;16.70;56.70;;;;;;4965590;28;20031;-70
2021/03/15 04:38:08;;;;;;;4.65;1.20;;;16.70;56.90;;;;;;4972485;28;20046;-69
2021/03/15 04:40:36;;;;;;;20.30;2.10;;;16.70;56.80;;;;;;4960505;28;20506;-68
2021/03/15 04:43:03;;;;;;;13.23;1.60;;;16.70;56.90;;;;;;4964066;28;20081;-69
2021/03/15 04:45:32;;;;;;;12.50;1.35;;;16.70;56.90;;;;;;4989477;28;20114;-69
2021/03/15 04:48:00;;;;;;;7.57;1.38;;;16.70;57.00;;;;;;4987527;28;20081;-69
2021/03/15 04:50:28;;;;;;;9.18;1.65;;;16.70;57.00;;;;;;4992083;28;20030;-68
2021/03/15 04:52:55;;;;;;;9.80;1.25;;;16.60;56.80;;;;;;4968724;28;20073;-69
2021/03/15 04:55:21;;;;;;;12.50;1.58;;;16.70;56.80;;;;;;4993039;28;20505;-68
2021/03/15 04:57:49;;;;;;;7.82;1.42;;;16.70;56.80;;;;;;4991814;28;20088;-69
2021/03/15 05:00:16;;;;;;;10.40;1.27;;;16.60;56.80;;;;;;4989171;28;20034;-69
2021/03/15 05:02:47;;;;;;;4.18;0.80;;;16.60;56.80;;;;;;4975915;28;20082;-68
2021/03/15 05:05:15;;;;;;;4.80;1.00;;;16.60;56.80;;;;;;4992680;28;20481;-69
2021/03/15 05:07:43;;;;;;;7.35;1.20;;;16.60;56.70;;;;;;4993391;28;20031;-69
2021/03/15 05:10:11;;;;;;;7.93;1.00;;;16.60;56.80;;;;;;4992862;28;20031;-69
2021/03/15 05:12:38;;;;;;;5.13;1.05;;;16.60;56.80;;;;;;4992563;28;20015;-68
2021/03/15 05:15:07;;;;;;;8.48;1.48;;;16.50;56.80;;;;;;4993103;28;20019;-69
2021/03/15 05:17:38;;;;;;;5.45;0.98;;;16.60;56.90;;;;;;4989427;28;20026;-69
2021/03/15 05:20:07;;;;;;;3.25;0.95;;;16.60;56.80;;;;;;4969730;28;20034;-68
2021/03/15 05:22:35;;;;;;;6.40;1.20;;;16.60;56.90;;;;;;4981076;28;20034;-68
2021/03/15 05:25:02;;;;;;;6.90;1.20;;;16.60;56.80;;;;;;4991300;28;20501;-68
2021/03/15 05:27:29;;;;;;;4.57;1.10;;;16.50;56.70;;;;;;4973714;28;20048;-69
2021/03/15 05:30:00;;;;;;;12.57;1.58;;;16.60;56.80;;;;;;4992285;28;20033;-72
2021/03/15 05:32:27;;;;;;;55.67;4.18;;;16.90;55.20;;;;;;4989441;28;20022;-69
2021/03/15 05:34:54;;;;;;;6.35;1.10;;;19.00;50.10;;;;;;4987039;28;20400;-69
2021/03/15 05:37:22;;;;;;;5.38;1.33;;;19.60;47.00;;;;;;4981095;28;20058;-68
2021/03/15 05:39:48;;;;;;;45.20;37.67;;;18.40;50.40;;;;;;4975713;28;20054;-72
2021/03/15 05:42:13;;;;;;;35.08;23.83;;;17.50;53.10;;;;;;4978275;28;20058;-73
2021/03/15 05:44:55;;;;;;;18.63;10.05;;;17.20;55.20;;;;;;4969067;28;20030;-73
2021/03/15 05:47:54;;;;;;;532.60;339.98;;;17.40;54.50;;;;;;4994380;28;20413;-72
2021/03/15 05:50:20;;;;;;;164.93;94.35;;;17.60;54.60;;;;;;4972262;28;20110;-71
2021/03/15 05:53:08;;;;;;;99.63;53.65;;;17.60;53.60;;;;;;4988039;28;20039;-74
2021/03/15 05:55:38;;;;;;;70.72;35.20;;;17.40;55.30;;;;;;4970902;28;20027;-71
2021/03/15 05:58:14;;;;;;;57.08;30.27;;;17.20;56.40;;;;;;4995865;28;20033;-74
2021/03/15 06:00:58;;;;;;;53.50;27.20;;;17.10;56.80;;;;;;4972229;28;20497;-74
2021/03/15 06:03:45;;;;;;;46.15;26.95;;;17.10;56.60;;;;;;4993737;28;20492;-73
2021/03/15 06:06:17;;;;;;;47.30;24.48;;;17.10;56.70;;;;;;4982123;28;20023;-76
2021/03/15 06:08:47;;;;;;;44.85;22.67;;;17.10;56.90;;;;;;4994560;28;20421;-72
2021/03/15 06:11:19;;;;;;;40.22;21.13;;;17.10;56.70;;;;;;4981737;28;20071;-74
2021/03/15 06:13:46;;;;;;;38.10;20.00;;;17.10;56.60;;;;;;4964222;28;20026;-73
2021/03/15 06:16:23;;;;;;;34.35;18.05;;;17.10;56.80;;;;;;4981779;28;20031;-71
2021/03/15 06:18:50;;;;;;;46.95;27.40;;;17.20;56.60;;;;;;4987849;28;20023;-71
2021/03/15 06:21:16;;;;;;;37.55;21.27;;;17.20;57.00;;;;;;4993828;28;20022;-67
2021/03/15 06:23:43;;;;;;;31.20;19.98;;;17.30;57.30;;;;;;4995047;28;20088;-70
2021/03/15 06:26:09;;;;;;;32.17;21.92;;;17.30;58.80;;;;;;4969109;28;20467;-71
2021/03/15 06:28:35;;;;;;;33.45;21.95;;;17.30;57.70;;;;;;4987045;28;20114;-73
2021/03/15 06:31:01;;;;;;;35.42;20.60;;;17.30;57.20;;;;;;4991712;28;20057;-72
2021/03/15 06:33:28;;;;;;;41.17;21.10;;;17.30;57.40;;;;;;4994858;28;20023;-72
2021/03/15 06:36:04;;;;;;;141.77;107.75;;;17.30;57.40;;;;;;4994462;28;20031;-68
2021/03/15 06:38:32;;;;;;;71.28;47.40;;;17.30;57.20;;;;;;4993612;28;20031;-68
2021/03/15 06:40:59;;;;;;;65.85;43.78;;;17.30;56.90;;;;;;4992877;28;20437;-68
2021/03/15 06:43:25;;;;;;;47.65;30.95;;;17.30;56.50;;;;;;4977041;28;20078;-68
2021/03/15 06:45:53;;;;;;;41.33;27.80;;;17.30;56.30;;;;;;4976237;28;20423;-68
2021/03/15 06:48:19;;;;;;;36.22;23.80;;;17.30;55.90;;;;;;4992019;28;20064;-68
2021/03/15 06:50:46;;;;;;;35.60;21.35;;;17.30;55.50;;;;;;4992286;28;20414;-68
2021/03/15 06:53:12;;;;;;;29.92;19.85;;;17.30;55.60;;;;;;4976154;28;20030;-68
2021/03/15 06:55:41;;;;;;;30.20;17.58;;;17.40;55.50;;;;;;4975836;28;20109;-68
2021/03/15 06:58:21;;;;;;;21.67;15.85;;;17.40;55.00;;;;;;4976187;28;21044;-68
2021/03/15 07:00:46;;;;;;;23.65;14.27;;;17.40;54.80;;;;;;4979365;28;20455;-68
2021/03/15 07:03:22;;;;;;;24.58;13.77;;;17.40;54.80;;;;;;4975942;28;20054;-68
2021/03/15 07:05:59;;;;;;;20.38;12.85;;;17.40;54.80;;;;;;4975900;28;20138;-68
2021/03/15 07:08:25;;;;;;;23.00;13.80;;;17.50;55.10;;;;;;4976082;28;20031;-69
2021/03/15 07:10:55;;;;;;;22.42;13.05;;;17.40;55.00;;;;;;4976689;28;20133;-68
2021/03/15 07:13:23;;;;;;;18.35;11.38;;;17.40;55.00;;;;;;4975892;28;20381;-67
2021/03/15 07:15:51;;;;;;;24.08;12.10;;;17.40;54.90;;;;;;4977365;28;20018;-68
2021/03/15 07:18:19;;;;;;;19.20;11.05;;;17.40;54.90;;;;;;4994603;28;20029;-64
2021/03/15 07:20:47;;;;;;;20.33;10.98;;;17.50;54.80;;;;;;4982526;28;20022;-65
2021/03/15 07:23:13;;;;;;;24.42;17.42;;;17.60;54.60;;;;;;4975457;28;20031;-63
2021/03/15 07:25:40;;;;;;;22.02;15.07;;;17.50;54.60;;;;;;4976732;28;20375;-65
2021/03/15 07:28:06;;;;;;;19.55;12.93;;;17.50;54.80;;;;;;4975667;28;20101;-64
2021/03/15 07:30:35;;;;;;;18.20;12.43;;;17.50;54.80;;;;;;4975646;28;20026;-64
2021/03/15 07:33:22;;;;;;;14.75;9.60;;;17.40;55.40;;;;;;4993566;28;20026;-64
2021/03/15 07:35:48;;;;;;;16.80;9.82;;;17.40;54.20;;;;;;4982438;28;20179;-68
2021/03/15 07:38:14;;;;;;;15.13;9.75;;;17.40;54.50;;;;;;4975268;28;20081;-65
2021/03/15 07:40:46;;;;;;;14.38;9.25;;;17.40;54.50;;;;;;4977916;28;20026;-67
2021/03/15 07:43:25;;;;;;;12.82;8.48;;;17.40;54.50;;;;;;4974991;28;20046;-67
2021/03/15 07:45:50;;;;;;;12.98;8.50;;;17.40;54.60;;;;;;4959106;28;20050;-65
2021/03/15 07:48:22;;;;;;;15.10;8.75;;;17.40;54.60;;;;;;4988333;28;20435;-64
2021/03/15 07:51:02;;;;;;;20.95;9.18;;;17.50;54.60;;;;;;4975058;28;20189;-68
2021/03/15 07:53:39;;;;;;;14.68;7.72;;;17.50;54.40;;;;;;4984472;28;20159;-67
2021/03/15 07:56:06;;;;;;;459.92;393.90;;;17.50;54.30;;;;;;4974985;28;20074;-68
2021/03/15 07:58:43;;;;;;;84.68;68.18;;;17.40;54.40;;;;;;4990235;28;20031;-64
2021/03/15 08:01:09;;;;;;;51.80;38.40;;;17.50;54.70;;;;;;4981376;28;20117;-64
2021/03/15 08:03:46;;;;;;;43.72;33.33;;;17.50;54.60;;;;;;4986873;28;20046;-68
2021/03/15 08:06:12;;;;;;;45.88;29.92;;;17.50;54.70;;;;;;4963929;28;20193;-69
2021/03/15 08:08:41;;;;;;;38.83;27.85;;;17.60;55.10;;;;;;4980514;28;20023;-67
2021/03/15 08:11:10;;;;;;;37.58;25.50;;;17.60;54.90;;;;;;4990118;28;20116;-64
2021/03/15 08:13:38;;;;;;;36.70;23.42;;;17.60;55.20;;;;;;4986640;28;20442;-64
2021/03/15 08:16:05;;;;;;;40.78;24.20;;;17.50;55.10;;;;;;4976563;28;20106;-65
2021/03/15 08:18:33;;;;;;;32.10;21.90;;;17.40;55.00;;;;;;4976872;28;20044;-65
2021/03/15 08:21:03;;;;;;;32.72;20.52;;;17.30;55.20;;;;;;4973935;28;20019;-65
2021/03/15 08:23:30;;;;;;;28.60;19.83;;;17.30;55.20;;;;;;4974195;28;20512;-67
2021/03/15 08:26:15;;;;;;;25.92;18.35;;;17.40;55.20;;;;;;4985901;28;20026;-69
2021/03/15 08:28:43;;;;;;;27.30;17.63;;;17.50;55.00;;;;;;4962471;28;20133;-69
2021/03/15 08:31:15;;;;;;;26.13;16.50;;;17.70;54.60;;;;;;4974086;28;20027;-69
2021/03/15 08:33:43;;;;;;;23.92;15.43;;;17.70;54.40;;;;;;4978023;28;20474;-69
2021/03/15 08:36:09;;;;;;;23.02;14.82;;;17.80;54.40;;;;;;4974130;28;20077;-69
2021/03/15 08:38:35;;;;;;;21.60;13.32;;;17.80;54.00;;;;;;4974129;28;20063;-69
2021/03/15 08:41:11;;;;;;;21.33;13.68;;;17.70;54.20;;;;;;4978124;28;20426;-69
2021/03/15 08:43:44;;;;;;;17.80;12.15;;;17.60;54.40;;;;;;4974847;28;20047;-69
2021/03/15 08:46:29;;;;;;;17.50;11.35;;;17.50;54.40;;;;;;4993222;28;20085;-69
2021/03/15 08:49:07;;;;;;;20.17;11.60;;;17.40;54.50;;;;;;4992337;28;20058;-69
2021/03/15 08:51:33;;;;;;;16.70;10.75;;;17.40;54.60;;;;;;4993266;28;20026;-69
2021/03/15 08:53:59;;;;;;;16.98;10.73;;;17.40;54.80;;;;;;4993234;28;20033;-69
2021/03/15 08:56:28;;;;;;;15.80;10.85;;;17.30;54.90;;;;;;4993211;28;20030;-69
2021/03/15 08:58:55;;;;;;;15.32;9.75;;;17.30;55.00;;;;;;4993502;28;20504;-69
2021/03/15 09:01:26;;;;;;;13.70;9.02;;;17.30;55.00;;;;;;4975720;28;20030;-69
2021/03/15 09:04:00;;;;;;;14.70;9.17;;;17.20;54.90;;;;;;4993459;28;20371;-69
2021/03/15 09:09:01;;;;;;;;;;;17.30;54.50;;;;;;4993917;28;20536;-69
2021/03/15 09:11:36;;;;;;;12.65;7.55;;;17.30;54.40;;;;;;4991653;28;20393;-69
2021/03/15 09:14:21;;;;;;;13.48;7.97;;;17.30;54.30;;;;;;4976894;28;20026;-69
2021/03/15 09:17:15;;;;;;;11.88;7.28;;;17.40;54.20;;;;;;4990587;28;20061;-69
2021/03/15 09:19:43;;;;;;;13.65;7.32;;;17.30;54.10;;;;;;4984440;28;20026;-69
2021/03/15 09:22:30;;;;;;;10.90;6.57;;;17.30;54.10;;;;;;4970461;28;20112;-69
2021/03/15 09:24:58;;;;;;;10.02;6.32;;;17.30;54.20;;;;;;4977414;28;20015;-69
2021/03/15 09:27:41;;;;;;;10.57;6.15;;;17.30;54.10;;;;;;4962950;28;20042;-69
2021/03/15 09:30:30;;;;;;;10.77;6.20;;;17.40;54.10;;;;;;4991789;28;20405;-69
2021/03/15 09:32:57;;;;;;;10.70;5.35;;;17.50;53.90;;;;;;4984590;28;20030;-70
2021/03/15 09:35:39;;;;;;;9.30;5.50;;;17.60;53.50;;;;;;4977682;28;20080;-69
2021/03/15 09:38:10;;;;;;;9.05;5.15;;;17.50;53.40;;;;;;4978318;28;20040;-69
2021/03/15 09:40:40;;;;;;;10.95;5.20;;;17.50;53.70;;;;;;4976698;28;20031;-70
2021/03/15 09:43:06;;;;;;;9.70;5.05;;;17.40;53.70;;;;;;4984149;28;20045;-70
2021/03/15 09:45:38;;;;;;;11.57;4.90;;;17.40;53.70;;;;;;4993718;28;20053;-69
2021/03/15 09:48:17;;;;;;;8.55;4.70;;;17.40;53.70;;;;;;4983586;28;20037;-69
2021/03/15 09:50:54;;;;;;;8.13;4.38;;;17.30;53.90;;;;;;4995950;28;20166;-70
2021/03/15 09:53:21;;;;;;;8.18;4.28;;;17.30;53.90;;;;;;4995859;28;20033;-70
2021/03/15 09:55:47;;;;;;;10.10;4.47;;;17.20;53.70;;;;;;4978675;28;20108;-69
2021/03/15 09:58:16;;;;;;;7.32;3.92;;;17.20;53.70;;;;;;4994826;28;20033;-69
2021/03/15 10:00:43;;;;;;;7.85;4.03;;;17.20;53.70;;;;;;4995979;28;20073;-70
2021/03/15 10:03:21;;;;;;;8.25;3.70;;;17.10;53.50;;;;;;4995556;28;20034;-71
2021/03/15 10:05:51;;;;;;;7.22;3.55;;;17.10;53.60;;;;;;4977197;28;20064;-70
2021/03/15 10:08:17;;;;;;;7.07;3.67;;;17.10;53.50;;;;;;4990897;28;20486;-71
2021/03/15 10:10:43;;;;;;;7.50;3.40;;;17.10;53.40;;;;;;4978768;28;20051;-70
2021/03/15 10:13:10;;;;;;;7.80;3.58;;;17.10;53.40;;;;;;4978210;28;20144;-69
2021/03/15 10:15:35;;;;;;;7.22;3.45;;;17.10;53.30;;;;;;4995562;28;20034;-69
2021/03/15 10:18:01;;;;;;;6.72;3.75;;;17.10;53.10;;;;;;4995144;28;20044;-69
2021/03/15 10:20:30;;;;;;;6.97;3.40;;;17.10;53.10;;;;;;4995435;28;20058;-69
2021/03/15 10:22:57;;;;;;;6.70;3.25;;;17.10;53.10;;;;;;4995298;28;20030;-71
2021/03/15 10:25:23;;;;;;;6.60;3.15;;;17.10;52.90;;;;;;4995309;28;20084;-69
2021/03/15 10:27:57;;;;;;;7.20;3.00;;;17.10;52.90;;;;;;4994943;28;20417;-71
2021/03/15 10:30:35;;;;;;;5.75;2.95;;;17.10;53.00;;;;;;4977251;28;20146;-69
2021/03/15 10:33:02;;;;;;;5.95;2.55;;;17.10;52.90;;;;;;4995062;28;20022;-69
2021/03/15 10:35:31;;;;;;;7.03;3.15;;;17.10;52.90;;;;;;4995148;28;20105;-69
2021/03/15 10:38:02;;;;;;;6.45;2.80;;;17.10;52.70;;;;;;4994878;28;20569;-69
2021/03/15 10:40:28;;;;;;;5.90;2.83;;;17.10;52.60;;;;;;4995054;28;20041;-71
2021/03/15 10:42:56;;;;;;;7.40;3.03;;;17.10;52.70;;;;;;4995065;28;20397;-69
2021/03/15 10:45:25;;;;;;;5.88;2.75;;;17.10;52.70;;;;;;4995305;28;20085;-70
2021/03/15 10:47:51;;;;;;;5.30;2.20;;;17.20;52.60;;;;;;4981746;28;20062;-69
2021/03/15 10:50:33;;;;;;;6.10;2.33;;;17.30;52.30;;;;;;4987824;28;20026;-69
2021/03/15 10:53:14;;;;;;;5.97;2.58;;;17.30;52.50;;;;;;4994800;28;20466;-69
2021/03/15 10:55:40;;;;;;;5.75;2.50;;;17.20;52.70;;;;;;4994226;28;20036;-69
2021/03/15 10:58:07;;;;;;;4.72;2.20;;;17.10;52.70;;;;;;4993860;28;20034;-69
2021/03/15 11:00:44;;;;;;;5.43;2.13;;;17.10;52.70;;;;;;4977241;28;20030;-69
2021/03/15 11:03:30;;;;;;;4.75;2.13;;;17.20;52.50;;;;;;4994688;28;20030;-70
2021/03/15 11:06:05;;;;;;;5.28;2.30;;;17.20;52.50;;;;;;4993900;28;20034;-70
2021/03/15 11:08:32;;;;;;;5.13;2.08;;;17.40;52.20;;;;;;4994377;28;20025;-70
2021/03/15 11:11:17;;;;;;;6.05;2.13;;;17.50;52.10;;;;;;4993769;28;20026;-70
2021/03/15 11:13:46;;;;;;;6.28;1.98;;;17.70;51.30;;;;;;4994250;28;20022;-72
2021/03/15 11:16:20;;;;;;;5.18;1.98;;;17.80;51.10;;;;;;4993876;28;20026;-69
2021/03/15 11:19:09;;;;;;;8.73;1.95;;;17.70;51.20;;;;;;4994392;28;20026;-72
2021/03/15 11:21:37;;;;;;;5.00;2.03;;;17.70;51.20;;;;;;4993908;28;20034;-70
2021/03/15 11:24:04;;;;;;;4.38;1.90;;;17.60;51.20;;;;;;4994635;28;20053;-70
2021/03/15 11:26:43;;;;;;;5.57;2.00;;;17.60;51.40;;;;;;4994817;28;20109;-70
2021/03/15 11:29:09;;;;;;;4.70;1.80;;;17.50;51.40;;;;;;4994554;28;20405;-70
2021/03/15 11:31:36;;;;;;;4.50;1.80;;;17.50;51.50;;;;;;4994989;28;20029;-69
2021/03/15 11:34:02;;;;;;;5.18;1.98;;;17.50;51.20;;;;;;4994457;28;20454;-70
2021/03/15 11:36:31;;;;;;;4.88;1.80;;;17.50;51.40;;;;;;4994451;28;20022;-70
2021/03/15 11:39:03;;;;;;;4.15;1.63;;;17.60;51.20;;;;;;4992861;28;20031;-70
2021/03/15 11:41:33;;;;;;;5.22;1.70;;;17.80;51.00;;;;;;4993037;28;20027;-69
2021/03/15 11:44:01;;;;;;;4.05;1.60;;;18.10;50.30;;;;;;4993225;28;20038;-70
2021/03/15 11:46:26;;;;;;;5.38;1.75;;;18.30;49.60;;;;;;4992845;28;20022;-70
2021/03/15 11:48:52;;;;;;;4.03;1.60;;;18.40;49.30;;;;;;4974906;28;20022;-70
2021/03/15 11:51:18;;;;;;;3.85;1.60;;;18.60;48.80;;;;;;4987030;28;20374;-70
2021/03/15 11:53:45;;;;;;;3.60;1.60;;;18.70;48.40;;;;;;4993833;28;20026;-70
2021/03/15 11:56:12;;;;;;;3.92;1.55;;;18.80;47.90;;;;;;4993590;28;20106;-70
2021/03/15 11:58:38;;;;;;;3.53;1.58;;;18.60;48.10;;;;;;4993959;28;20113;-69
2021/03/15 12:01:06;;;;;;;3.95;1.70;;;18.60;48.30;;;;;;4990015;28;20037;-69
2021/03/15 12:03:32;;;;;;;3.00;1.30;;;18.60;47.90;;;;;;4993102;28;20433;-69
2021/03/15 12:05:57;;;;;;;3.55;1.50;;;18.40;48.50;;;;;;4989746;28;20046;-69
2021/03/15 12:08:24;;;;;;;4.60;1.50;;;18.20;48.90;;;;;;4976951;28;20031;-69
2021/03/15 12:10:50;;;;;;;4.82;1.60;;;18.00;49.10;;;;;;4978069;28;20097;-69
2021/03/15 12:13:16;;;;;;;2.50;1.20;;;17.90;49.40;;;;;;4993892;28;20078;-69
2021/03/15 12:15:42;;;;;;;4.32;1.40;;;17.70;49.90;;;;;;4993781;28;20402;-69
2021/03/15 12:18:09;;;;;;;3.78;1.30;;;17.70;50.10;;;;;;4993693;28;20034;-71
2021/03/15 12:20:38;;;;;;;3.92;1.40;;;17.70;50.20;;;;;;4993636;28;20393;-69
2021/03/15 12:23:04;;;;;;;3.50;1.42;;;17.80;50.20;;;;;;4989393;28;20063;-70
2021/03/15 12:25:31;;;;;;;5.65;1.48;;;18.10;49.20;;;;;;4986230;28;20041;-70
2021/03/15 12:27:58;;;;;;;3.75;1.35;;;18.40;48.30;;;;;;4992958;28;20026;-70
2021/03/15 12:30:25;;;;;;;3.45;1.30;;;18.60;47.70;;;;;;4993478;28;20038;-70
2021/03/15 12:32:51;;;;;;;3.08;1.38;;;18.70;47.40;;;;;;4992869;28;20058;-70
2021/03/15 12:35:17;;;;;;;4.70;1.55;;;18.80;47.00;;;;;;4991836;28;20061;-69
2021/03/15 12:37:44;;;;;;;3.15;1.23;;;18.80;46.70;;;;;;4986879;28;20045;-69
2021/03/15 12:40:11;;;;;;;8.95;1.60;;;18.70;47.00;;;;;;4975485;28;20034;-70
2021/03/15 12:42:37;;;;;;;3.95;1.42;;;18.50;47.50;;;;;;4992701;28;20038;-70
2021/03/15 12:45:07;;;;;;;9.32;2.00;;;18.20;48.00;;;;;;4993316;28;20543;-69
2021/03/15 12:47:33;;;;;;;5.82;1.30;;;18.00;48.60;;;;;;4992983;28;20022;-69
2021/03/15 12:49:59;;;;;;;5.18;1.20;;;17.80;49.00;;;;;;4993567;28;20023;-69
2021/03/15 12:52:27;;;;;;;4.68;1.20;;;17.70;49.80;;;;;;4992528;28;20037;-70
2021/03/15 12:54:53;;;;;;;4.43;1.40;;;17.90;49.10;;;;;;4996634;28;20022;-71
2021/03/15 12:57:19;;;;;;;6.50;1.50;;;18.20;48.50;;;;;;4997048;28;20363;-69